Coeburn, VA

1:26 AM EDT on July 28, 2014 (GMT -0400)
Lonesome Pine (KLNP) Elev 2684 ft | 36.99 °N, 82.53 °W | Change Station

Current weather conditions updated 11 minutes ago

Mostly Cloudy
Mostly Cloudy
66 °F
Feels Like 66 °F
N
8
Wind Variable Wind from SW

Today is forecast to be nearly the same temperature as yesterday.

Today
High -- | Low -- °F
--% Chance of Precip.
Yesterday
High -- | Low -- °F
Precip. -- in
6:31 AM 8:40 PM
New Moon, 1% visible
Pressure 29.93 in
Visibility 10.0 miles
Clouds Scattered Clouds 300 ft
Scattered Clouds 3400 ft
Mostly Cloudy 11000 ft
Dew Point 66 °F
Humidity 100%
Rainfall 0.00 in
Snow Depth Not available.
UV 0 out of 12
Pollen 5.10 out of 12
Air Quality Not available.
Flu Activity Not available.
METAR KLNP 280515Z AUTO 22007KT 10SM SCT003 SCT034 BKN110 19/19 A2993 RMK AO2 LTG DSNT N AND NE

More Conditions Fewer Conditions

Pressure 29.93 in
Visibility 10.0 miles
Clouds Scattered Clouds 300 ft
Scattered Clouds 3400 ft
Mostly Cloudy 11000 ft
Dew Point 66 °F
Humidity 100%
Rainfall 0.00 in
Snow Depth Not available.
UV 0 out of 12
Pollen 5.10 out of 12
Air Quality Not available.
Flu Activity Not available.
METAR KLNP 280515Z AUTO 22007KT 10SM SCT003 SCT034 BKN110 19/19 A2993 RMK AO2 LTG DSNT N AND NE

More Conditions Fewer Conditions

10-Day Weather Forecast

Almanac

Astronomy

Jul. 28, 2014 Rise Set
Actual Time 6:31 AM EDT 8:40 PM EDT
Civil Twilight 6:02 AM EDT 9:09 PM EDT
Nautical Twilight 5:27 AM EDT 9:44 PM EDT
Astronomical Twilight 4:48 AM EDT 10:22 PM EDT
Moon 8:08 AM EDT 9:25 PM EDT
Length of Visible Light 15h 06m
Length of Day
14h 08m
Tomorrow will be 1m 40s shorter.
New Moon, 1% of the Moon is Illuminated
Today
New Moon
Aug 3
First Quarter
Aug 10
Full
Aug 17
Last Quarter
Aug 25
New

Today's Extremes

State Highs State Lows

Community

WunderPhotos

Upload Photos

1,738,309 photos uploaded!

Nearby

Snow Depth

Station Depth Elevation
No new snow has been reported.

Earthquake Activity

City Distance Mag. Time & Date
No recent earthquake activity has been reported nearby.
Minimum magnitude displayed is 2.5.

Coastal Water Temperatures

Place Temperature
No Stations Reporting

Nearby Weather Stations

Station Location Temp. Dew Point Humidity Wind Precip. Elev Updated Type
RAWS PRAWS 12 KY, Jenkins, KY 63 °F 63 °F 100% NNE  at  1 mph 0.00 in / hr 1974 ft 12:47 AM EDT MADIS
Ramey Flats, Clintwood, VA 67.3 °F 67 °F 100% NE  at  0.0 mph 0.01 in / hr 1795 ft 1:23 AM EDT Normal
My Side Of The Mountain, Lebanon, VA 65.3 °F 65 °F 99% ESE  at  0.0 mph 0.00 in / hr 2480 ft 1:25 AM EDT Rapid Fire
W4CSN, Nottingham, Gate City, VA 66.6 °F 65 °F 96% WNW  at  2.0 mph 0.00 in / hr 1309 ft 1:25 AM EDT Rapid Fire

Show More Stations Show Fewer Stations